sensor_id;sensor_type;location;lat;lon;timestamp;pressure;altitude;pressure_sealevel;temperature;humidity
46412;BME280;32113;42.012;24.870;2023-04-05T00:01:36;98249.97;;;9.69;52.03
46412;BME280;32113;42.012;24.870;2023-04-05T00:04:02;98235.06;;;9.44;52.43
46412;BME280;32113;42.012;24.870;2023-04-05T00:06:29;98242.72;;;9.47;52.17
46412;BME280;32113;42.012;24.870;2023-04-05T00:11:21;98250.50;;;9.41;53.00
46412;BME280;32113;42.012;24.870;2023-04-05T00:13:48;98252.34;;;9.32;53.63
46412;BME280;32113;42.012;24.870;2023-04-05T00:16:17;98254.22;;;9.23;53.48
46412;BME280;32113;42.012;24.870;2023-04-05T00:18:43;98256.06;;;9.16;52.48
46412;BME280;32113;42.012;24.870;2023-04-05T00:21:18;98257.75;;;9.15;53.96
46412;BME280;32113;42.012;24.870;2023-04-05T00:23:48;98257.00;;;9.10;54.13
46412;BME280;32113;42.012;24.870;2023-04-05T00:26:15;98254.53;;;9.05;54.22
46412;BME280;32113;42.012;24.870;2023-04-05T00:28:40;98274.16;;;9.05;53.76
46412;BME280;32113;42.012;24.870;2023-04-05T00:31:06;98264.94;;;8.94;54.23
46412;BME280;32113;42.012;24.870;2023-04-05T00:33:31;98269.94;;;9.01;54.78
46412;BME280;32113;42.012;24.870;2023-04-05T00:35:57;98276.91;;;8.92;54.64
46412;BME280;32113;42.012;24.870;2023-04-05T00:38:22;98263.28;;;8.90;54.57
46412;BME280;32113;42.012;24.870;2023-04-05T00:40:48;98265.84;;;8.90;55.27
46412;BME280;32113;42.012;24.870;2023-04-05T00:43:13;98265.97;;;8.84;54.56
46412;BME280;32113;42.012;24.870;2023-04-05T00:45:40;98266.72;;;8.91;54.79
46412;BME280;32113;42.012;24.870;2023-04-05T00:48:06;98265.06;;;8.88;53.93
46412;BME280;32113;42.012;24.870;2023-04-05T00:50:32;98264.34;;;8.77;54.28
46412;BME280;32113;42.012;24.870;2023-04-05T00:52:57;98266.88;;;8.80;55.08
46412;BME280;32113;42.012;24.870;2023-04-05T00:55:24;98259.59;;;8.55;54.59
46412;BME280;32113;42.012;24.870;2023-04-05T00:57:51;98264.63;;;8.60;55.29
46412;BME280;32113;42.012;24.870;2023-04-05T01:00:19;98264.59;;;8.63;55.35
46412;BME280;32113;42.012;24.870;2023-04-05T01:02:51;98262.03;;;8.63;54.66
46412;BME280;32113;42.012;24.870;2023-04-05T01:06:05;98271.97;;;8.82;54.71
46412;BME280;32113;42.012;24.870;2023-04-05T01:08:36;98266.16;;;8.72;54.19
46412;BME280;32113;42.012;24.870;2023-04-05T01:11:05;98276.31;;;8.76;54.80
46412;BME280;32113;42.012;24.870;2023-04-05T01:13:31;98275.38;;;8.80;54.37
46412;BME280;32113;42.012;24.870;2023-04-05T01:15:57;98278.75;;;8.86;55.05
46412;BME280;32113;42.012;24.870;2023-04-05T01:18:23;98277.03;;;8.85;54.15
46412;BME280;32113;42.012;24.870;2023-04-05T01:32:06;98284.88;;;8.74;54.68
46412;BME280;32113;42.012;24.870;2023-04-05T01:34:52;98277.16;;;8.75;54.04
46412;BME280;32113;42.012;24.870;2023-04-05T01:37:19;98279.72;;;8.75;53.80
46412;BME280;32113;42.012;24.870;2023-04-05T01:39:47;98285.59;;;8.82;54.17
46412;BME280;32113;42.012;24.870;2023-04-05T01:42:16;98294.09;;;8.84;53.61
46412;BME280;32113;42.012;24.870;2023-04-05T01:44:47;98289.00;;;8.83;53.42
46412;BME280;32113;42.012;24.870;2023-04-05T01:47:12;98289.06;;;8.78;53.13
46412;BME280;32113;42.012;24.870;2023-04-05T01:49:38;98295.28;;;8.61;53.84
46412;BME280;32113;42.012;24.870;2023-04-05T01:52:03;98295.28;;;8.61;53.65
46412;BME280;32113;42.012;24.870;2023-04-05T01:54:28;98295.19;;;8.67;54.09
46412;BME280;32113;42.012;24.870;2023-04-05T01:56:54;98294.41;;;8.64;54.34
46412;BME280;32113;42.012;24.870;2023-04-05T01:59:20;98292.75;;;8.58;54.50
46412;BME280;32113;42.012;24.870;2023-04-05T02:01:46;98304.66;;;8.61;54.13
46412;BME280;32113;42.012;24.870;2023-04-05T02:04:11;98290.09;;;8.66;54.61
46412;BME280;32113;42.012;24.870;2023-04-05T02:06:36;98298.81;;;8.51;54.72
46412;BME280;32113;42.012;24.870;2023-04-05T02:09:02;98293.84;;;8.41;54.13
46412;BME280;32113;42.012;24.870;2023-04-05T02:11:27;98301.63;;;8.32;54.53
46412;BME280;32113;42.012;24.870;2023-04-05T02:13:53;98293.06;;;8.35;54.46
46412;BME280;32113;42.012;24.870;2023-04-05T02:16:18;98301.53;;;8.38;54.19
46412;BME280;32113;42.012;24.870;2023-04-05T02:18:43;98309.44;;;8.20;54.58
46412;BME280;32113;42.012;24.870;2023-04-05T02:21:15;98311.78;;;8.37;55.38
46412;BME280;32113;42.012;24.870;2023-04-05T02:23:41;98309.19;;;8.40;55.00
46412;BME280;32113;42.012;24.870;2023-04-05T02:26:06;98311.88;;;8.29;54.64
46412;BME280;32113;42.012;24.870;2023-04-05T02:28:31;98308.63;;;8.16;55.58
46412;BME280;32113;42.012;24.870;2023-04-05T02:30:57;98310.34;;;8.15;55.63
46412;BME280;32113;42.012;24.870;2023-04-05T02:33:22;98317.78;;;8.31;55.28
46412;BME280;32113;42.012;24.870;2023-04-05T02:35:49;98313.56;;;8.28;54.40
46412;BME280;32113;42.012;24.870;2023-04-05T02:38:16;98312.88;;;8.19;54.74
46412;BME280;32113;42.012;24.870;2023-04-05T02:40:41;98324.09;;;8.05;54.98
46412;BME280;32113;42.012;24.870;2023-04-05T02:43:07;98314.00;;;7.93;55.34
46412;BME280;32113;42.012;24.870;2023-04-05T02:45:32;98323.41;;;7.91;55.54
46412;BME280;32113;42.012;24.870;2023-04-05T02:47:58;98325.06;;;7.95;56.37
46412;BME280;32113;42.012;24.870;2023-04-05T02:50:23;98317.44;;;7.90;55.92
46412;BME280;32113;42.012;24.870;2023-04-05T02:52:49;98318.19;;;8.01;56.57
46412;BME280;32113;42.012;24.870;2023-04-05T02:55:15;98310.53;;;7.98;55.48
46412;BME280;32113;42.012;24.870;2023-04-05T02:57:42;98325.81;;;8.03;55.37
46412;BME280;32113;42.012;24.870;2023-04-05T03:00:08;98328.41;;;8.01;55.36
46412;BME280;32113;42.012;24.870;2023-04-05T03:02:35;98325.94;;;7.94;55.35
46412;BME280;32113;42.012;24.870;2023-04-05T03:05:02;98333.53;;;8.00;54.97
46412;BME280;32113;42.012;24.870;2023-04-05T03:07:27;98329.31;;;7.94;55.08
46412;BME280;32113;42.012;24.870;2023-04-05T03:09:53;98329.19;;;8.05;55.27
46412;BME280;32113;42.012;24.870;2023-04-05T03:12:19;98335.09;;;8.12;54.59
46412;BME280;32113;42.012;24.870;2023-04-05T03:14:44;98330.69;;;8.22;54.65
46412;BME280;32113;42.012;24.870;2023-04-05T03:17:11;98338.44;;;8.15;54.49
46412;BME280;32113;42.012;24.870;2023-04-05T03:19:36;98337.56;;;8.17;54.90
46412;BME280;32113;42.012;24.870;2023-04-05T03:22:03;98340.22;;;8.10;55.68
46412;BME280;32113;42.012;24.870;2023-04-05T03:24:28;98334.31;;;8.04;54.58
46412;BME280;32113;42.012;24.870;2023-04-05T03:26:53;98333.34;;;8.14;55.28
46412;BME280;32113;42.012;24.870;2023-04-05T03:29:19;98339.44;;;8.05;54.71
46412;BME280;32113;42.012;24.870;2023-04-05T03:31:44;98336.84;;;8.08;54.91
46412;BME280;32113;42.012;24.870;2023-04-05T03:34:10;98341.31;;;7.89;54.97
46412;BME280;32113;42.012;24.870;2023-04-05T03:36:35;98353.28;;;7.85;55.46
46412;BME280;32113;42.012;24.870;2023-04-05T03:39:11;98354.88;;;7.94;55.21
46412;BME280;32113;42.012;24.870;2023-04-05T03:41:38;98346.25;;;8.03;54.54
46412;BME280;32113;42.012;24.870;2023-04-05T03:44:04;98346.91;;;8.19;54.36
46412;BME280;32113;42.012;24.870;2023-04-05T03:46:30;98348.63;;;8.19;53.60
46412;BME280;32113;42.012;24.870;2023-04-05T03:48:56;98351.97;;;8.25;53.77
46412;BME280;32113;42.012;24.870;2023-04-05T03:51:21;98355.31;;;8.31;52.63
46412;BME280;32113;42.012;24.870;2023-04-05T03:53:48;98351.06;;;8.30;53.57
46412;BME280;32113;42.012;24.870;2023-04-05T03:56:13;98357.84;;;8.34;53.78
46412;BME280;32113;42.012;24.870;2023-04-05T03:58:39;98357.88;;;8.31;53.85
46412;BME280;32113;42.012;24.870;2023-04-05T04:01:05;98359.56;;;8.30;53.12
46412;BME280;32113;42.012;24.870;2023-04-05T04:03:31;98364.53;;;8.43;53.41
46412;BME280;32113;42.012;24.870;2023-04-05T04:05:56;98355.06;;;8.49;52.84
46412;BME280;32113;42.012;24.870;2023-04-05T04:08:22;98360.34;;;8.35;52.61
46412;BME280;32113;42.012;24.870;2023-04-05T04:10:48;98362.97;;;8.32;52.64
46412;BME280;32113;42.012;24.870;2023-04-05T04:13:14;98363.78;;;8.33;53.04
46412;BME280;32113;42.012;24.870;2023-04-05T04:15:39;98373.06;;;8.41;52.73
46412;BME280;32113;42.012;24.870;2023-04-05T04:18:05;98380.75;;;8.41;52.67
46412;BME280;32113;42.012;24.870;2023-04-05T04:20:30;98373.91;;;8.40;53.51
46412;BME280;32113;42.012;24.870;2023-04-05T04:22:56;98385.72;;;8.52;53.28
46412;BME280;32113;42.012;24.870;2023-04-05T04:25:22;98390.84;;;8.54;55.19
46412;BME280;32113;42.012;24.870;2023-04-05T04:27:50;98385.72;;;8.52;52.99
46412;BME280;32113;42.012;24.870;2023-04-05T04:30:17;98377.34;;;8.39;53.44
46412;BME280;32113;42.012;24.870;2023-04-05T04:32:47;98385.81;;;8.43;52.95
46412;BME280;32113;42.012;24.870;2023-04-05T04:35:18;98396.22;;;8.31;53.40
46412;BME280;32113;42.012;24.870;2023-04-05T04:37:49;98402.19;;;8.28;54.67
46412;BME280;32113;42.012;24.870;2023-04-05T04:40:17;98398.88;;;8.21;53.76
46412;BME280;32113;42.012;24.870;2023-04-05T04:42:43;98401.31;;;8.32;53.98
46412;BME280;32113;42.012;24.870;2023-04-05T04:45:13;98404.53;;;8.48;53.04
46412;BME280;32113;42.012;24.870;2023-04-05T04:47:44;98410.44;;;8.55;53.15
46412;BME280;32113;42.012;24.870;2023-04-05T04:50:11;98410.28;;;8.66;53.05
46412;BME280;32113;42.012;24.870;2023-04-05T04:52:38;98415.25;;;8.77;53.20
46412;BME280;32113;42.012;24.870;2023-04-05T04:55:06;98415.38;;;8.69;52.58
46412;BME280;32113;42.012;24.870;2023-04-05T04:57:32;98418.06;;;8.58;52.72
46412;BME280;32113;42.012;24.870;2023-04-05T04:59:57;98424.91;;;8.58;52.67
46412;BME280;32113;42.012;24.870;2023-04-05T05:02:24;98426.47;;;8.68;52.86
46412;BME280;32113;42.012;24.870;2023-04-05T05:04:49;98423.03;;;8.69;53.14
46412;BME280;32113;42.012;24.870;2023-04-05T05:07:15;98431.53;;;8.71;52.10
46412;BME280;32113;42.012;24.870;2023-04-05T05:09:42;98429.84;;;8.72;52.15
46412;BME280;32113;42.012;24.870;2023-04-05T05:12:07;98433.09;;;8.83;52.47
46412;BME280;32113;42.012;24.870;2023-04-05T05:14:33;98440.56;;;8.99;52.09
46412;BME280;32113;42.012;24.870;2023-04-05T05:16:58;98435.38;;;9.02;51.71
46412;BME280;32113;42.012;24.870;2023-04-05T05:19:23;98436.28;;;8.99;51.80
46412;BME280;32113;42.012;24.870;2023-04-05T05:21:49;98436.19;;;9.07;51.32
46412;BME280;32113;42.012;24.870;2023-04-05T05:24:17;98426.88;;;9.01;51.35
46412;BME280;32113;42.012;24.870;2023-04-05T05:26:42;98439.72;;;8.98;51.49
46412;BME280;32113;42.012;24.870;2023-04-05T05:29:08;98426.91;;;9.00;51.69
46412;BME280;32113;42.012;24.870;2023-04-05T05:31:33;98437.25;;;8.92;51.59
46412;BME280;32113;42.012;24.870;2023-04-05T05:33:59;98434.66;;;8.95;51.68
46412;BME280;32113;42.012;24.870;2023-04-05T05:36:24;98443.03;;;9.06;51.30
46412;BME280;32113;42.012;24.870;2023-04-05T05:38:50;98438.88;;;8.98;51.42
46412;BME280;32113;42.012;24.870;2023-04-05T05:41:17;98428.66;;;8.98;51.46
46412;BME280;32113;42.012;24.870;2023-04-05T05:43:42;98432.84;;;9.02;51.13
46412;BME280;32113;42.012;24.870;2023-04-05T05:46:08;98435.56;;;8.91;50.30
46412;BME280;32113;42.012;24.870;2023-04-05T05:48:34;98444.06;;;8.93;51.34
46412;BME280;32113;42.012;24.870;2023-04-05T05:50:59;98434.69;;;8.93;51.18
46412;BME280;32113;42.012;24.870;2023-04-05T05:53:33;98444.81;;;9.01;52.06
46412;BME280;32113;42.012;24.870;2023-04-05T05:55:59;98446.44;;;9.07;51.35
46412;BME280;32113;42.012;24.870;2023-04-05T05:58:24;98445.63;;;9.03;51.59
46412;BME280;32113;42.012;24.870;2023-04-05T06:00:50;98450.75;;;9.02;51.83
46412;BME280;32113;42.012;24.870;2023-04-05T06:03:21;98444.81;;;9.01;51.23
46412;BME280;32113;42.012;24.870;2023-04-05T06:05:54;98443.13;;;9.00;51.43
46412;BME280;32113;42.012;24.870;2023-04-05T06:08:21;98440.50;;;9.02;51.03
46412;BME280;32113;42.012;24.870;2023-04-05T06:10:47;98435.47;;;8.99;51.49
46412;BME280;32113;42.012;24.870;2023-04-05T06:13:13;98449.66;;;9.20;52.37
46412;BME280;32113;42.012;24.870;2023-04-05T06:15:38;98444.59;;;9.15;50.94
46412;BME280;32113;42.012;24.870;2023-04-05T06:18:04;98440.34;;;9.14;50.11
46412;BME280;32113;42.012;24.870;2023-04-05T06:20:29;98442.66;;;9.30;50.98
46412;BME280;32113;42.012;24.870;2023-04-05T06:22:55;98457.91;;;9.39;51.99
46412;BME280;32113;42.012;24.870;2023-04-05T06:25:20;98439.00;;;9.48;50.80
46412;BME280;32113;42.012;24.870;2023-04-05T06:27:46;98438.78;;;9.60;51.22
46412;BME280;32113;42.012;24.870;2023-04-05T06:30:11;98442.97;;;9.68;50.18
46412;BME280;32113;42.012;24.870;2023-04-05T06:32:37;98450.47;;;9.79;50.05
46412;BME280;32113;42.012;24.870;2023-04-05T06:35:02;98439.34;;;9.80;49.90
46412;BME280;32113;42.012;24.870;2023-04-05T06:37:29;98431.09;;;9.62;49.25
46412;BME280;32113;42.012;24.870;2023-04-05T06:39:55;98443.13;;;9.57;48.62
46412;BME280;32113;42.012;24.870;2023-04-05T06:42:20;98443.91;;;9.60;47.74
46412;BME280;32113;42.012;24.870;2023-04-05T06:44:45;98460.13;;;9.61;48.65
46412;BME280;32113;42.012;24.870;2023-04-05T06:47:11;98451.41;;;9.73;48.05
46412;BME280;32113;42.012;24.870;2023-04-05T06:49:36;98461.75;;;9.68;48.34
46412;BME280;32113;42.012;24.870;2023-04-05T06:52:02;98458.00;;;9.88;49.16
46412;BME280;32113;42.012;24.870;2023-04-05T06:54:31;98451.56;;;10.12;49.65
46412;BME280;32113;42.012;24.870;2023-04-05T06:56:57;98471.31;;;10.09;48.31
46412;BME280;32113;42.012;24.870;2023-04-05T06:59:22;98470.50;;;10.07;49.02
46412;BME280;32113;42.012;24.870;2023-04-05T07:01:48;98477.03;;;10.22;49.34
46412;BME280;32113;42.012;24.870;2023-04-05T07:04:13;98476.22;;;10.21;49.27
46412;BME280;32113;42.012;24.870;2023-04-05T07:06:38;98474.31;;;10.31;48.99
46412;BME280;32113;42.012;24.870;2023-04-05T07:09:04;98470.81;;;10.37;48.46
46412;BME280;32113;42.012;24.870;2023-04-05T07:11:30;98477.56;;;10.41;48.70
46412;BME280;32113;42.012;24.870;2023-04-05T07:13:58;98476.84;;;10.34;47.98
46412;BME280;32113;42.012;24.870;2023-04-05T07:16:23;98485.56;;;10.25;48.39
46412;BME280;32113;42.012;24.870;2023-04-05T07:18:49;98482.13;;;10.25;48.07
46412;BME280;32113;42.012;24.870;2023-04-05T07:21:15;98483.88;;;10.23;47.62
46412;BME280;32113;42.012;24.870;2023-04-05T07:23:40;98478.75;;;10.24;47.21
46412;BME280;32113;42.012;24.870;2023-04-05T07:26:05;98485.59;;;10.22;48.02
46412;BME280;32113;42.012;24.870;2023-04-05T07:28:33;98486.00;;;9.99;47.84
46412;BME280;32113;42.012;24.870;2023-04-05T07:31:03;98499.88;;;9.87;48.91
46412;BME280;32113;42.012;24.870;2023-04-05T07:33:28;98498.97;;;9.90;49.06
46412;BME280;32113;42.012;24.870;2023-04-05T07:35:54;98489.63;;;9.87;49.01
46412;BME280;32113;42.012;24.870;2023-04-05T07:38:21;98499.00;;;9.88;49.39
46412;BME280;32113;42.012;24.870;2023-04-05T07:40:49;98503.84;;;10.05;48.78
46412;BME280;32113;42.012;24.870;2023-04-05T07:43:16;98498.56;;;10.13;49.18
46412;BME280;32113;42.012;24.870;2023-04-05T07:45:42;98498.88;;;9.94;49.25
46412;BME280;32113;42.012;24.870;2023-04-05T07:48:08;98504.91;;;9.93;48.81
46412;BME280;32113;42.012;24.870;2023-04-05T07:50:33;98511.59;;;10.01;49.27
46412;BME280;32113;42.012;24.870;2023-04-05T07:53:00;98505.06;;;9.82;50.11
46412;BME280;32113;42.012;24.870;2023-04-05T07:55:25;98513.50;;;9.89;49.39
46412;BME280;32113;42.012;24.870;2023-04-05T07:57:52;98519.38;;;9.94;49.23
46412;BME280;32113;42.012;24.870;2023-04-05T08:00:18;98524.50;;;9.96;49.41
46412;BME280;32113;42.012;24.870;2023-04-05T08:02:44;98524.34;;;10.05;49.36
46412;BME280;32113;42.012;24.870;2023-04-05T08:05:10;98530.31;;;10.06;47.95
46412;BME280;32113;42.012;24.870;2023-04-05T08:07:35;98525.97;;;10.11;48.28
46412;BME280;32113;42.012;24.870;2023-04-05T08:10:02;98524.22;;;10.11;48.50
46412;BME280;32113;42.012;24.870;2023-04-05T08:12:29;98544.72;;;10.13;48.39
46412;BME280;32113;42.012;24.870;2023-04-05T08:14:56;98527.88;;;9.98;48.10
46412;BME280;32113;42.012;24.870;2023-04-05T08:17:21;98538.88;;;10.05;48.00
46412;BME280;32113;42.012;24.870;2023-04-05T08:19:47;98542.09;;;10.18;48.38
46412;BME280;32113;42.012;24.870;2023-04-05T08:22:13;98537.78;;;10.18;50.30
46412;BME280;32113;42.012;24.870;2023-04-05T08:24:40;98540.91;;;10.36;47.49
46412;BME280;32113;42.012;24.870;2023-04-05T08:27:06;98536.47;;;10.47;46.77
46412;BME280;32113;42.012;24.870;2023-04-05T08:29:31;98533.09;;;10.45;47.15
46412;BME280;32113;42.012;24.870;2023-04-05T08:31:56;98543.03;;;10.62;46.73
46412;BME280;32113;42.012;24.870;2023-04-05T08:34:22;98546.47;;;10.63;45.66
46412;BME280;32113;42.012;24.870;2023-04-05T08:36:48;98541.34;;;10.63;46.65
46412;BME280;32113;42.012;24.870;2023-04-05T08:39:13;98547.84;;;10.80;45.47
46412;BME280;32113;42.012;24.870;2023-04-05T08:41:41;98531.75;;;10.71;46.47
46412;BME280;32113;42.012;24.870;2023-04-05T08:44:11;98548.91;;;10.69;46.99
46412;BME280;32113;42.012;24.870;2023-04-05T08:46:37;98558.44;;;10.61;46.46
46412;BME280;32113;42.012;24.870;2023-04-05T08:49:07;98556.88;;;10.54;45.50
46412;BME280;32113;42.012;24.870;2023-04-05T08:51:35;98548.28;;;10.56;45.91
46412;BME280;32113;42.012;24.870;2023-04-05T08:54:01;98546.22;;;10.75;46.37
46412;BME280;32113;42.012;24.870;2023-04-05T08:56:31;98551.34;;;10.75;45.94
46412;BME280;32113;42.012;24.870;2023-04-05T08:59:07;98550.59;;;10.69;45.54
46412;BME280;32113;42.012;24.870;2023-04-05T09:01:38;98545.44;;;10.72;45.08
46412;BME280;32113;42.012;24.870;2023-04-05T09:04:17;98556.16;;;10.47;44.90
46412;BME280;32113;42.012;24.870;2023-04-05T09:06:46;98554.50;;;10.41;46.32
46412;BME280;32113;42.012;24.870;2023-04-05T09:09:13;98562.69;;;10.62;46.33
46412;BME280;32113;42.012;24.870;2023-04-05T09:11:39;98546.28;;;10.72;46.46
46412;BME280;32113;42.012;24.870;2023-04-05T09:14:05;98565.22;;;10.65;44.95
46412;BME280;32113;42.012;24.870;2023-04-05T09:16:34;98569.47;;;10.66;45.63
46412;BME280;32113;42.012;24.870;2023-04-05T09:19:00;98570.34;;;10.67;46.59
46412;BME280;32113;42.012;24.870;2023-04-05T09:21:27;98567.59;;;10.76;45.36
46412;BME280;32113;42.012;24.870;2023-04-05T09:23:53;98577.94;;;10.71;46.08
46412;BME280;32113;42.012;24.870;2023-04-05T09:26:21;98575.41;;;10.70;45.63
46412;BME280;32113;42.012;24.870;2023-04-05T09:28:47;98566.59;;;10.83;45.85
46412;BME280;32113;42.012;24.870;2023-04-05T09:31:35;98577.25;;;10.63;45.09
46412;BME280;32113;42.012;24.870;2023-04-05T09:34:04;98580.59;;;10.67;45.93
46412;BME280;32113;42.012;24.870;2023-04-05T09:36:32;98582.22;;;10.72;45.66
46412;BME280;32113;42.012;24.870;2023-04-05T09:39:05;98584.03;;;10.66;45.57
46412;BME280;32113;42.012;24.870;2023-04-05T09:41:32;98583.22;;;10.62;44.95
46412;BME280;32113;42.012;24.870;2023-04-05T09:43:57;98582.53;;;10.54;44.84
46412;BME280;32113;42.012;24.870;2023-04-05T09:46:43;98579.84;;;10.61;45.38
46412;BME280;32113;42.012;24.870;2023-04-05T09:49:08;98582.44;;;10.58;45.58
46412;BME280;32113;42.012;24.870;2023-04-05T09:51:37;98575.59;;;10.59;45.08
46412;BME280;32113;42.012;24.870;2023-04-05T09:54:05;98576.50;;;10.58;45.40
46412;BME280;32113;42.012;24.870;2023-04-05T09:56:36;98590.22;;;10.55;45.19
46412;BME280;32113;42.012;24.870;2023-04-05T09:59:09;98583.16;;;10.67;45.36
46412;BME280;32113;42.012;24.870;2023-04-05T10:01:38;98587.25;;;10.77;45.65
46412;BME280;32113;42.012;24.870;2023-04-05T10:04:07;98570.78;;;10.87;45.45
46412;BME280;32113;42.012;24.870;2023-04-05T10:06:37;98577.63;;;10.88;44.45
46412;BME280;32113;42.012;24.870;2023-04-05T10:09:04;98583.97;;;10.69;44.14
46412;BME280;32113;42.012;24.870;2023-04-05T10:11:31;98596.00;;;10.65;44.73
46412;BME280;32113;42.012;24.870;2023-04-05T10:14:00;98581.34;;;10.72;44.95
46412;BME280;32113;42.012;24.870;2023-04-05T10:16:27;98589.16;;;10.67;44.71
46412;BME280;32113;42.012;24.870;2023-04-05T10:18:53;98590.28;;;10.50;45.28
46412;BME280;32113;42.012;24.870;2023-04-05T10:21:28;98595.28;;;10.58;45.31
46412;BME280;32113;42.012;24.870;2023-04-05T10:27:32;98592.09;;;10.45;45.56
46412;BME280;32113;42.012;24.870;2023-04-05T10:30:04;98587.84;;;10.44;46.12
46412;BME280;32113;42.012;24.870;2023-04-05T10:33:00;98596.19;;;10.54;46.35
46412;BME280;32113;42.012;24.870;2023-04-05T10:35:34;98597.19;;;10.47;46.28
46412;BME280;32113;42.012;24.870;2023-04-05T10:38:20;98600.69;;;10.39;46.25
46412;BME280;32113;42.012;24.870;2023-04-05T10:40:48;98599.91;;;10.34;46.84
46412;BME280;32113;42.012;24.870;2023-04-05T10:43:20;98615.56;;;10.19;47.12
46412;BME280;32113;42.012;24.870;2023-04-05T10:45:49;98604.72;;;9.99;46.35
46412;BME280;32113;42.012;24.870;2023-04-05T10:51:06;98608.31;;;9.88;48.71
46412;BME280;32113;42.012;24.870;2023-04-05T10:53:32;98610.88;;;9.88;47.37
46412;BME280;32113;42.012;24.870;2023-04-05T10:56:00;98606.38;;;10.05;48.29
46412;BME280;32113;42.012;24.870;2023-04-05T10:58:26;98608.81;;;10.11;48.74
46412;BME280;32113;42.012;24.870;2023-04-05T11:00:53;98604.31;;;10.28;48.86
46412;BME280;32113;42.012;24.870;2023-04-05T11:06:17;98613.50;;;10.39;47.87
46412;BME280;32113;42.012;24.870;2023-04-05T11:08:43;98614.53;;;10.31;48.94
46412;BME280;32113;42.012;24.870;2023-04-05T11:11:13;98611.84;;;10.37;49.79
46412;BME280;32113;42.012;24.870;2023-04-05T11:13:51;98618.94;;;10.21;49.95
46412;BME280;32113;42.012;24.870;2023-04-05T11:16:17;98621.44;;;10.25;49.34
46412;BME280;32113;42.012;24.870;2023-04-05T11:18:49;98625.34;;;10.50;49.15
46412;BME280;32113;42.012;24.870;2023-04-05T11:21:23;98621.78;;;10.59;49.41
46412;BME280;32113;42.012;24.870;2023-04-05T11:29:14;98622.34;;;10.76;48.88
46412;BME280;32113;42.012;24.870;2023-04-05T11:31:59;98637.81;;;10.70;48.68
46412;BME280;32113;42.012;24.870;2023-04-05T11:34:25;98629.38;;;10.65;49.57
46412;BME280;32113;42.012;24.870;2023-04-05T11:36:50;98623.94;;;10.81;50.28
46412;BME280;32113;42.012;24.870;2023-04-05T11:41:45;98617.53;;;11.05;48.35
46412;BME280;32113;42.012;24.870;2023-04-05T11:44:14;98621.69;;;11.11;48.90
46412;BME280;32113;42.012;24.870;2023-04-05T11:46:45;98625.91;;;11.15;47.60
46412;BME280;32113;42.012;24.870;2023-04-05T11:49:11;98626.25;;;10.96;48.23
46412;BME280;32113;42.012;24.870;2023-04-05T11:51:39;98628.09;;;10.89;48.72
46412;BME280;32113;42.012;24.870;2023-04-05T11:54:07;98627.94;;;10.97;49.39
46412;BME280;32113;42.012;24.870;2023-04-05T11:56:32;98631.22;;;11.06;51.07
46412;BME280;32113;42.012;24.870;2023-04-05T11:58:58;98621.00;;;11.01;50.82
46412;BME280;32113;42.012;24.870;2023-04-05T12:01:24;98622.81;;;10.96;51.62
46412;BME280;32113;42.012;24.870;2023-04-05T12:03:53;98626.19;;;10.99;50.81
46412;BME280;32113;42.012;24.870;2023-04-05T12:06:24;98628.66;;;11.06;50.46
46412;BME280;32113;42.012;24.870;2023-04-05T12:08:50;98624.25;;;11.11;51.27
46412;BME280;32113;42.012;24.870;2023-04-05T12:11:29;98619.84;;;11.17;51.03
46412;BME280;32113;42.012;24.870;2023-04-05T12:13:59;98626.38;;;11.33;52.07
46412;BME280;32113;42.012;24.870;2023-04-05T12:16:26;98620.13;;;11.46;51.65
46412;BME280;32113;42.012;24.870;2023-04-05T12:18:56;98617.59;;;11.44;50.12
46412;BME280;32113;42.012;24.870;2023-04-05T12:21:22;98608.22;;;11.42;49.81
46412;BME280;32113;42.012;24.870;2023-04-05T12:23:49;98607.13;;;11.54;49.98
46412;BME280;32113;42.012;24.870;2023-04-05T12:26:16;98612.91;;;11.64;49.60
46412;BME280;32113;42.012;24.870;2023-04-05T12:28:51;98612.75;;;11.70;48.76
46412;BME280;32113;42.012;24.870;2023-04-05T12:31:34;98605.06;;;11.70;47.12
46412;BME280;32113;42.012;24.870;2023-04-05T12:33:59;98616.19;;;11.70;47.48
46412;BME280;32113;42.012;24.870;2023-04-05T12:36:26;98608.66;;;11.63;47.70
46412;BME280;32113;42.012;24.870;2023-04-05T12:38:53;98615.81;;;11.48;47.84
46412;BME280;32113;42.012;24.870;2023-04-05T12:41:26;98610.72;;;11.45;47.81
46412;BME280;32113;42.012;24.870;2023-04-05T12:43:52;98610.47;;;11.57;48.40
46412;BME280;32113;42.012;24.870;2023-04-05T12:46:37;98617.50;;;11.49;46.45
46412;BME280;32113;42.012;24.870;2023-04-05T12:49:04;98611.06;;;11.29;46.21
46412;BME280;32113;42.012;24.870;2023-04-05T12:51:30;98622.28;;;11.25;46.38
46412;BME280;32113;42.012;24.870;2023-04-05T12:53:56;98612.78;;;11.29;48.33
46412;BME280;32113;42.012;24.870;2023-04-05T12:56:21;98607.75;;;11.24;47.39
46412;BME280;32113;42.012;24.870;2023-04-05T12:58:48;98617.75;;;11.37;46.72
46412;BME280;32113;42.012;24.870;2023-04-05T13:01:15;98621.06;;;11.42;47.38
46412;BME280;32113;42.012;24.870;2023-04-05T13:03:42;98623.56;;;11.47;45.91
46412;BME280;32113;42.012;24.870;2023-04-05T13:06:08;98611.34;;;11.14;44.89
46412;BME280;32113;42.012;24.870;2023-04-05T13:08:33;98609.78;;;11.08;45.53
46412;BME280;32113;42.012;24.870;2023-04-05T13:10:59;98625.41;;;10.94;46.42
46412;BME280;32113;42.012;24.870;2023-04-05T13:13:25;98626.81;;;11.12;47.03
46412;BME280;32113;42.012;24.870;2023-04-05T13:15:50;98622.69;;;11.03;46.75
46412;BME280;32113;42.012;24.870;2023-04-05T13:18:15;98632.44;;;10.86;46.17
46412;BME280;32113;42.012;24.870;2023-04-05T13:20:41;98637.59;;;10.84;47.38
46412;BME280;32113;42.012;24.870;2023-04-05T13:23:07;98631.69;;;10.79;47.42
46412;BME280;32113;42.012;24.870;2023-04-05T13:25:40;98635.78;;;10.89;47.60
46412;BME280;32113;42.012;24.870;2023-04-05T13:28:06;98633.94;;;10.96;47.33